Time;durP1;ratioP1;P1;durP2;ratioP2;P2;SDS_P1;SDS_P2;PMS_P1;PMS_P2;Temp;Humidity;BMP_temperature;BMP_pressure;BME280_temperature;BME280_humidity;BME280_pressure;Samples;Min_cycle;Max_cycle;Signal;HPM_P1;HPM_P2
2022/01/06 00:02:21;;;;;;;;;;;1.60;99.90;;;;;;4996940;28;20372;-82
2022/01/06 00:04:47;;;;;;;;;;;1.70;99.90;;;;;;4980968;28;19928;-82
2022/01/06 00:07:13;;;;;;;;;;;1.60;99.90;;;;;;5012536;28;19925;-82
2022/01/06 00:09:38;;;;;;;;;;;1.60;99.90;;;;;;4996339;28;20382;-82
2022/01/06 00:12:05;;;;;;;;;;;1.70;99.90;;;;;;5031049;28;19917;-82
2022/01/06 00:14:56;;;;;;;;;;;1.70;99.90;;;;;;4996728;28;19924;-82
2022/01/06 00:17:41;;;;;;;;;;;1.70;99.90;;;;;;4995450;28;20055;-82
2022/01/06 00:23:23;;;;;;;;;;;1.60;99.90;;;;;;4999550;28;19913;-82
2022/01/06 00:25:50;;;;;;;;;;;1.60;99.90;;;;;;4988331;28;20012;-82
2022/01/06 00:28:16;;;;;;;;;;;1.60;99.90;;;;;;5009417;28;19920;-82
2022/01/06 00:30:41;;;;;;;;;;;1.60;99.90;;;;;;4996250;28;19910;-82
2022/01/06 00:33:07;;;;;;;;;;;1.60;99.90;;;;;;4996778;28;19917;-82
2022/01/06 00:35:33;;;;;;;;;;;1.60;99.90;;;;;;5017754;28;20368;-81
2022/01/06 00:37:58;;;;;;;;;;;1.60;99.90;;;;;;4966164;28;20009;-82
2022/01/06 00:40:24;;;;;;;;;;;1.60;99.90;;;;;;4977211;28;19966;-82
2022/01/06 00:42:49;;;;;;;;;;;1.60;99.90;;;;;;5002649;28;20392;-82
2022/01/06 00:45:15;;;;;;;;;;;1.60;99.90;;;;;;4996204;28;19920;-82
2022/01/06 00:47:41;;;;;;;;;;;1.60;99.90;;;;;;4995733;28;19917;-81
2022/01/06 00:50:06;;;;;;;;;;;1.60;99.90;;;;;;5012465;28;20386;-82
2022/01/06 00:52:33;;;;;;;;;;;1.60;99.90;;;;;;4996619;28;19928;-82
2022/01/06 00:54:58;;;;;;;;;;;1.60;99.90;;;;;;5030587;28;19913;-82
2022/01/06 00:57:24;;;;;;;;;;;1.60;99.90;;;;;;5012408;28;19913;-82
2022/01/06 00:59:50;;;;;;;;;;;1.60;99.90;;;;;;5014539;28;20030;-81
2022/01/06 01:02:15;;;;;;;;;;;1.60;99.90;;;;;;5016686;28;19921;-82
2022/01/06 01:04:41;;;;;;;;;;;1.70;99.90;;;;;;4999774;28;20402;-82
2022/01/06 01:07:07;;;;;;;;;;;1.70;99.90;;;;;;5015782;28;19975;-81
2022/01/06 01:09:33;;;;;;;;;;;1.70;99.90;;;;;;4999016;28;19980;-82
2022/01/06 01:12:02;;;;;;;;;;;1.70;99.90;;;;;;5032691;28;19913;-82
2022/01/06 01:14:31;;;;;;;;;;;1.70;99.90;;;;;;4991469;28;19913;-82
2022/01/06 01:16:59;;;;;;;;;;;1.70;99.90;;;;;;5015576;28;19913;-82
2022/01/06 01:19:25;;;;;;;;;;;1.70;99.90;;;;;;4998951;28;20505;-82
2022/01/06 01:21:51;;;;;;;;;;;1.70;99.90;;;;;;4999903;28;20015;-82
2022/01/06 01:24:17;;;;;;;;;;;1.70;99.90;;;;;;5015992;28;19913;-82
2022/01/06 01:26:43;;;;;;;;;;;1.60;99.90;;;;;;4998891;28;19946;-82
2022/01/06 01:29:18;;;;;;;;;;;1.60;99.90;;;;;;4998682;28;19936;-82
2022/01/06 01:31:51;;;;;;;;;;;1.50;99.90;;;;;;5014599;28;19917;-82
2022/01/06 01:34:24;;;;;;;;;;;1.50;99.90;;;;;;4999932;28;20288;-82
2022/01/06 01:36:50;;;;;;;;;;;1.50;99.90;;;;;;5015289;28;19920;-81
2022/01/06 01:39:16;;;;;;;;;;;1.50;99.90;;;;;;4998902;28;20383;-82
2022/01/06 01:41:42;;;;;;;;;;;1.50;99.90;;;;;;5017594;28;19971;-82
2022/01/06 01:44:13;;;;;;;;;;;1.50;99.90;;;;;;5027804;28;19917;-82
2022/01/06 01:46:44;;;;;;;;;;;1.50;99.90;;;;;;4995500;28;20294;-82
2022/01/06 01:49:31;;;;;;;;;;;1.50;99.90;;;;;;5011712;28;19925;-81
2022/01/06 01:51:56;;;;;;;;;;;1.60;99.90;;;;;;4995864;28;19924;-81
2022/01/06 01:54:22;;;;;;;;;;;1.60;99.90;;;;;;4999192;28;19913;-82
2022/01/06 01:56:48;;;;;;;;;;;1.60;99.90;;;;;;4995117;28;19913;-82
2022/01/06 01:59:13;;;;;;;;;;;1.60;99.90;;;;;;4992793;28;20386;-82
2022/01/06 02:01:41;;;;;;;;;;;1.60;99.90;;;;;;4977452;28;19923;-82
2022/01/06 02:04:07;;;;;;;;;;;1.60;99.90;;;;;;4998173;28;19927;-82
2022/01/06 02:06:32;;;;;;;;;;;1.70;99.90;;;;;;4994784;28;19918;-82
2022/01/06 02:08:59;;;;;;;;;;;1.70;99.90;;;;;;5013293;28;19913;-82
2022/01/06 02:11:24;;;;;;;;;;;1.70;99.90;;;;;;5006993;28;19913;-82
2022/01/06 02:13:51;;;;;;;;;;;1.60;99.90;;;;;;5014869;28;19917;-82
2022/01/06 02:16:21;;;;;;;;;;;1.60;99.90;;;;;;5014558;28;19960;-81
2022/01/06 02:18:47;;;;;;;;;;;1.60;99.90;;;;;;5014442;28;20398;-82
2022/01/06 02:21:13;;;;;;;;;;;1.60;99.90;;;;;;5011085;28;19918;-82
2022/01/06 02:23:38;;;;;;;;;;;1.60;99.90;;;;;;4995325;28;20372;-82
2022/01/06 02:26:04;;;;;;;;;;;1.60;99.90;;;;;;4993590;28;20012;-82
2022/01/06 02:28:29;;;;;;;;;;;1.60;99.90;;;;;;4975942;28;20322;-82
2022/01/06 02:30:57;;;;;;;;;;;1.60;99.90;;;;;;4985224;28;19917;-81
2022/01/06 02:33:24;;;;;;;;;;;1.50;99.90;;;;;;4998181;28;19913;-82
2022/01/06 02:35:49;;;;;;;;;;;1.50;99.90;;;;;;4997564;28;20390;-82
2022/01/06 02:38:16;;;;;;;;;;;1.50;99.90;;;;;;5014146;28;20011;-82
2022/01/06 02:40:41;;;;;;;;;;;1.50;99.90;;;;;;5010958;28;20013;-82
2022/01/06 02:43:07;;;;;;;;;;;1.50;99.90;;;;;;5003009;28;20012;-82
2022/01/06 02:45:34;;;;;;;;;;;1.50;99.90;;;;;;4978064;28;19925;-82
2022/01/06 02:48:08;;;;;;;;;;;1.50;99.90;;;;;;4994937;28;19913;-82
2022/01/06 02:50:42;;;;;;;;;;;1.50;99.90;;;;;;5006991;28;19921;-82
2022/01/06 02:53:08;;;;;;;;;;;1.50;99.90;;;;;;5014423;28;19921;-82
2022/01/06 02:55:35;;;;;;;;;;;1.50;99.90;;;;;;5030316;28;19975;-82
2022/01/06 02:58:01;;;;;;;;;;;1.50;99.90;;;;;;5003222;28;20411;-82
2022/01/06 03:00:26;;;;;;;;;;;1.50;99.90;;;;;;4965944;28;19917;-82
2022/01/06 03:02:52;;;;;;;;;;;1.40;99.90;;;;;;5003243;28;19945;-82
2022/01/06 03:05:19;;;;;;;;;;;1.40;99.90;;;;;;4978193;28;19922;-82
2022/01/06 03:07:45;;;;;;;;;;;1.40;99.90;;;;;;4995543;28;19925;-82
2022/01/06 03:10:14;;;;;;;;;;;1.40;99.90;;;;;;5010230;28;19987;-82
2022/01/06 03:12:39;;;;;;;;;;;1.40;99.90;;;;;;4978079;28;19924;-82
2022/01/06 03:15:07;;;;;;;;;;;1.40;99.90;;;;;;5019477;28;19917;-82
2022/01/06 03:17:32;;;;;;;;;;;1.30;99.90;;;;;;4997024;28;19971;-82
2022/01/06 03:19:58;;;;;;;;;;;1.30;99.90;;;;;;4996882;28;19921;-82
2022/01/06 03:22:23;;;;;;;;;;;1.30;99.90;;;;;;4997560;28;19921;-82
2022/01/06 03:24:49;;;;;;;;;;;1.30;99.90;;;;;;4994489;28;19917;-82
2022/01/06 03:27:14;;;;;;;;;;;1.30;99.90;;;;;;5008118;28;19917;-82
2022/01/06 03:29:40;;;;;;;;;;;1.30;99.90;;;;;;5010133;28;19947;-82
2022/01/06 03:32:06;;;;;;;;;;;1.30;99.90;;;;;;4994404;28;20356;-82
2022/01/06 03:34:31;;;;;;;;;;;1.30;99.90;;;;;;4994252;28;20396;-82
2022/01/06 03:36:58;;;;;;;;;;;1.30;99.90;;;;;;5010250;28;19917;-82
2022/01/06 03:39:23;;;;;;;;;;;1.20;99.90;;;;;;4993688;28;20382;-82
2022/01/06 03:41:49;;;;;;;;;;;1.20;99.90;;;;;;5008662;28;19913;-82
2022/01/06 03:44:16;;;;;;;;;;;1.20;99.90;;;;;;4997551;28;19921;-82
2022/01/06 03:46:41;;;;;;;;;;;1.10;99.90;;;;;;5013222;28;19999;-83
2022/01/06 03:49:07;;;;;;;;;;;1.10;99.90;;;;;;4996418;28;20015;-82
2022/01/06 03:51:33;;;;;;;;;;;1.10;99.90;;;;;;4993745;28;19921;-82
2022/01/06 03:53:59;;;;;;;;;;;1.10;99.90;;;;;;5002542;28;19913;-82
2022/01/06 03:56:25;;;;;;;;;;;1.10;99.90;;;;;;4996685;28;20402;-82
2022/01/06 03:58:50;;;;;;;;;;;1.10;99.90;;;;;;4993356;28;19918;-82
2022/01/06 04:01:16;;;;;;;;;;;1.00;99.90;;;;;;4993861;28;19925;-82
2022/01/06 04:03:44;;;;;;;;;;;1.00;99.90;;;;;;5010447;28;19922;-83
2022/01/06 04:06:10;;;;;;;;;;;1.00;99.90;;;;;;5007929;28;19918;-82
2022/01/06 04:08:36;;;;;;;;;;;1.00;99.90;;;;;;4996715;28;19921;-83
2022/01/06 04:11:01;;;;;;;;;;;1.00;99.90;;;;;;5029906;28;19918;-82
2022/01/06 04:13:27;;;;;;;;;;;1.00;99.90;;;;;;5010185;28;20517;-82
2022/01/06 04:15:53;;;;;;;;;;;1.00;99.90;;;;;;4996307;28;19917;-82
2022/01/06 04:18:18;;;;;;;;;;;0.90;99.90;;;;;;5012934;28;19920;-82
2022/01/06 04:20:44;;;;;;;;;;;0.90;99.90;;;;;;4993605;28;20332;-83
2022/01/06 04:23:10;;;;;;;;;;;0.90;99.90;;;;;;4977831;28;19924;-82
2022/01/06 04:25:35;;;;;;;;;;;0.90;99.90;;;;;;5017775;28;20961;-82
2022/01/06 04:28:01;;;;;;;;;;;1.00;99.90;;;;;;5029783;28;19917;-82
2022/01/06 04:30:27;;;;;;;;;;;1.00;99.90;;;;;;5012693;28;19918;-82
2022/01/06 04:32:53;;;;;;;;;;;1.00;99.90;;;;;;5029920;28;19964;-82
2022/01/06 04:35:18;;;;;;;;;;;1.00;99.90;;;;;;4999743;28;20000;-82
2022/01/06 04:37:44;;;;;;;;;;;1.00;99.90;;;;;;5000302;28;19917;-82
2022/01/06 04:40:10;;;;;;;;;;;1.00;99.90;;;;;;5016185;28;19924;-82
2022/01/06 04:42:35;;;;;;;;;;;1.00;99.90;;;;;;5000574;28;20303;-82
2022/01/06 04:45:01;;;;;;;;;;;1.00;99.90;;;;;;5016883;28;20380;-82
2022/01/06 04:47:27;;;;;;;;;;;1.00;99.90;;;;;;4999875;28;19920;-82
2022/01/06 04:49:52;;;;;;;;;;;1.10;99.90;;;;;;4998003;28;19921;-83
2022/01/06 04:52:18;;;;;;;;;;;1.10;99.90;;;;;;4999947;28;19921;-82
2022/01/06 04:54:44;;;;;;;;;;;1.10;99.90;;;;;;5000444;28;20016;-82
2022/01/06 04:57:09;;;;;;;;;;;1.10;99.90;;;;;;5015903;28;20399;-82
2022/01/06 04:59:36;;;;;;;;;;;1.10;99.90;;;;;;5015696;28;19917;-82
2022/01/06 05:02:02;;;;;;;;;;;1.20;99.90;;;;;;4996501;28;19920;-82
2022/01/06 05:04:27;;;;;;;;;;;1.20;99.90;;;;;;4994830;28;19921;-82
2022/01/06 05:06:53;;;;;;;;;;;1.20;99.90;;;;;;5015738;28;19931;-82
2022/01/06 05:09:19;;;;;;;;;;;1.20;99.90;;;;;;4998919;28;19967;-82
2022/01/06 05:11:44;;;;;;;;;;;1.30;99.90;;;;;;5003812;28;20016;-82
2022/01/06 05:14:10;;;;;;;;;;;1.30;99.90;;;;;;5016270;28;19917;-82
2022/01/06 05:16:36;;;;;;;;;;;1.30;99.90;;;;;;4986610;28;19953;-82
2022/01/06 05:19:01;;;;;;;;;;;1.40;99.90;;;;;;4995644;28;20295;-82
2022/01/06 05:21:32;;;;;;;;;;;1.30;99.90;;;;;;5016182;28;19913;-82
2022/01/06 05:23:57;;;;;;;;;;;1.40;99.90;;;;;;4999843;28;19929;-81
2022/01/06 05:26:23;;;;;;;;;;;1.30;99.90;;;;;;5015522;28;20411;-82
2022/01/06 05:28:49;;;;;;;;;;;1.30;99.90;;;;;;4998940;28;20380;-82
2022/01/06 05:31:15;;;;;;;;;;;1.40;99.90;;;;;;4996216;28;19921;-82
2022/01/06 05:33:40;;;;;;;;;;;1.40;99.90;;;;;;5031787;28;20391;-82
2022/01/06 05:36:06;;;;;;;;;;;1.40;99.90;;;;;;4998844;28;19928;-82
2022/01/06 05:38:31;;;;;;;;;;;1.40;99.90;;;;;;4998384;28;19924;-82
2022/01/06 05:40:57;;;;;;;;;;;1.40;99.90;;;;;;4999413;28;20288;-82
2022/01/06 05:43:24;;;;;;;;;;;1.40;99.90;;;;;;4991659;28;20350;-82
2022/01/06 05:45:54;;;;;;;;;;;1.40;99.90;;;;;;4994566;28;19917;-82
2022/01/06 05:48:20;;;;;;;;;;;1.40;99.90;;;;;;4997402;28;19917;-82
2022/01/06 05:50:49;;;;;;;;;;;1.40;99.90;;;;;;4998984;28;19924;-82
2022/01/06 05:53:15;;;;;;;;;;;1.40;99.90;;;;;;5014079;28;19928;-82
2022/01/06 05:55:41;;;;;;;;;;;1.40;99.90;;;;;;4995847;28;19921;-82
2022/01/06 05:58:07;;;;;;;;;;;1.40;99.90;;;;;;4997218;28;19978;-82
2022/01/06 06:00:33;;;;;;;;;;;1.50;99.90;;;;;;5014915;28;19921;-82
2022/01/06 06:02:58;;;;;;;;;;;1.50;99.90;;;;;;5014945;28;19924;-82
2022/01/06 06:05:24;;;;;;;;;;;1.50;99.90;;;;;;4998239;28;19925;-82
2022/01/06 06:07:50;;;;;;;;;;;1.50;99.90;;;;;;4999184;28;20307;-82
2022/01/06 06:10:15;;;;;;;;;;;1.40;99.90;;;;;;5011184;28;19921;-82
2022/01/06 06:12:41;;;;;;;;;;;1.50;99.90;;;;;;5015099;28;19913;-81
2022/01/06 06:15:07;;;;;;;;;;;1.40;99.90;;;;;;5032860;28;19946;-82
2022/01/06 06:17:32;;;;;;;;;;;1.40;99.90;;;;;;4997646;28;19987;-82
2022/01/06 06:19:58;;;;;;;;;;;1.40;99.90;;;;;;5014037;28;19924;-82
2022/01/06 06:22:23;;;;;;;;;;;1.40;99.90;;;;;;4998350;28;19925;-82
2022/01/06 06:24:49;;;;;;;;;;;1.40;99.90;;;;;;5014535;28;19921;-82
2022/01/06 06:27:14;;;;;;;;;;;1.40;99.90;;;;;;4997656;28;19917;-82
2022/01/06 06:29:40;;;;;;;;;;;1.50;99.90;;;;;;4997686;28;19956;-82
2022/01/06 06:32:06;;;;;;;;;;;1.40;99.90;;;;;;4995206;28;19963;-82
2022/01/06 06:34:31;;;;;;;;;;;1.40;99.90;;;;;;4979006;28;19967;-82
2022/01/06 06:36:57;;;;;;;;;;;1.40;99.90;;;;;;4994744;28;19925;-82
2022/01/06 06:39:23;;;;;;;;;;;1.40;99.90;;;;;;5029217;28;19921;-82
2022/01/06 06:41:48;;;;;;;;;;;1.40;99.90;;;;;;4998333;28;19917;-82
2022/01/06 06:44:14;;;;;;;;;;;1.40;99.90;;;;;;4996470;28;19921;-82
2022/01/06 06:46:39;;;;;;;;;;;1.40;99.90;;;;;;5030217;28;19959;-82
2022/01/06 06:49:05;;;;;;;;;;;1.30;99.90;;;;;;4997016;28;20437;-82
2022/01/06 06:51:31;;;;;;;;;;;1.30;99.90;;;;;;5011141;28;19917;-81
2022/01/06 06:53:56;;;;;;;;;;;1.40;99.90;;;;;;5014044;28;19924;-82
2022/01/06 06:56:22;;;;;;;;;;;1.30;99.90;;;;;;4997201;28;19917;-82
2022/01/06 06:58:49;;;;;;;;;;;1.20;99.90;;;;;;5012303;28;20397;-82
2022/01/06 07:01:15;;;;;;;;;;;1.20;99.90;;;;;;5014356;28;19960;-82
2022/01/06 07:03:40;;;;;;;;;;;1.20;99.90;;;;;;4997487;28;20376;-82
2022/01/06 07:06:06;;;;;;;;;;;1.20;99.90;;;;;;4994030;28;19964;-82
2022/01/06 07:08:32;;;;;;;;;;;1.20;99.90;;;;;;5013039;28;19917;-82
2022/01/06 07:10:57;;;;;;;;;;;1.20;99.90;;;;;;4997658;28;20490;-81
2022/01/06 07:13:23;;;;;;;;;;;1.20;99.90;;;;;;4997586;28;19918;-82
2022/01/06 07:15:49;;;;;;;;;;;1.20;99.90;;;;;;5013612;28;19913;-82
2022/01/06 07:18:14;;;;;;;;;;;1.20;99.90;;;;;;4996930;28;19990;-82
2022/01/06 07:20:41;;;;;;;;;;;1.20;99.90;;;;;;5010234;28;20008;-81
2022/01/06 07:23:06;;;;;;;;;;;1.20;99.90;;;;;;5001512;28;19917;-81
2022/01/06 07:25:32;;;;;;;;;;;1.10;99.90;;;;;;4994631;28;19917;-81
2022/01/06 07:27:58;;;;;;;;;;;1.10;99.90;;;;;;5008826;28;20399;-81
2022/01/06 07:30:24;;;;;;;;;;;1.10;99.90;;;;;;4993766;28;20419;-81
2022/01/06 07:32:50;;;;;;;;;;;1.20;99.90;;;;;;4997396;28;19914;-82
2022/01/06 07:35:17;;;;;;;;;;;1.20;99.90;;;;;;4993900;28;19948;-81
2022/01/06 07:37:42;;;;;;;;;;;1.20;99.90;;;;;;4993337;28;20020;-81
2022/01/06 07:40:08;;;;;;;;;;;1.20;99.90;;;;;;4993433;28;20007;-81
2022/01/06 07:42:34;;;;;;;;;;;1.30;99.90;;;;;;4977950;28;19918;-81
2022/01/06 07:45:00;;;;;;;;;;;1.30;99.90;;;;;;4996048;28;19914;-81
2022/01/06 07:47:28;;;;;;;;;;;1.30;99.90;;;;;;5013087;28;19914;-81
2022/01/06 07:49:54;;;;;;;;;;;1.30;99.90;;;;;;5012759;28;19917;-82
2022/01/06 07:52:21;;;;;;;;;;;1.30;99.90;;;;;;5013544;28;19928;-81
2022/01/06 07:54:47;;;;;;;;;;;1.40;99.90;;;;;;4997073;28;19920;-81
2022/01/06 07:57:13;;;;;;;;;;;1.40;99.90;;;;;;5012860;28;19909;-81
2022/01/06 07:59:38;;;;;;;;;;;1.40;99.90;;;;;;4985616;28;20511;-81
2022/01/06 08:02:04;;;;;;;;;;;1.40;99.90;;;;;;5030154;28;20029;-82
2022/01/06 08:04:29;;;;;;;;;;;1.50;99.90;;;;;;5009123;28;20333;-81
2022/01/06 08:06:55;;;;;;;;;;;1.50;99.90;;;;;;5012213;28;19924;-81
2022/01/06 08:09:20;;;;;;;;;;;1.50;99.90;;;;;;4997836;28;19924;-81
2022/01/06 08:11:46;;;;;;;;;;;1.50;99.90;;;;;;5017214;28;19917;-81
2022/01/06 08:14:12;;;;;;;;;;;1.50;99.90;;;;;;5016759;28;19920;-81
2022/01/06 08:16:37;;;;;;;;;;;1.50;99.90;;;;;;5016389;28;19925;-81
2022/01/06 08:19:03;;;;;;;;;;;1.50;99.90;;;;;;5016359;28;19915;-82
2022/01/06 08:21:28;;;;;;;;;;;1.50;99.90;;;;;;5000865;28;20335;-81
2022/01/06 08:23:54;;;;;;;;;;;1.50;99.90;;;;;;5003564;28;19928;-81
2022/01/06 08:26:20;;;;;;;;;;;1.60;99.90;;;;;;4991706;28;19917;-81
2022/01/06 08:28:46;;;;;;;;;;;1.60;99.90;;;;;;4999006;28;19917;-81
2022/01/06 08:31:13;;;;;;;;;;;1.60;99.90;;;;;;5000643;28;20596;-81
2022/01/06 08:33:38;;;;;;;;;;;1.60;99.90;;;;;;5025897;28;20343;-82
2022/01/06 08:36:04;;;;;;;;;;;1.70;99.90;;;;;;5015778;28;19917;-82
2022/01/06 08:38:30;;;;;;;;;;;1.70;99.90;;;;;;5010660;28;19913;-81
2022/01/06 08:40:55;;;;;;;;;;;1.70;99.90;;;;;;5016735;28;19917;-82
2022/01/06 08:43:27;;;;;;;;;;;1.80;99.90;;;;;;5034447;28;20391;-82
2022/01/06 08:45:57;;;;;;;;;;;1.80;99.90;;;;;;5032748;28;19928;-82
2022/01/06 08:48:23;;;;;;;;;;;1.80;99.90;;;;;;5016151;28;19924;-81
2022/01/06 08:50:48;;;;;;;;;;;1.90;99.90;;;;;;5032645;28;19920;-81
2022/01/06 08:53:14;;;;;;;;;;;1.90;99.90;;;;;;5016762;28;19920;-82
2022/01/06 08:55:40;;;;;;;;;;;1.90;99.90;;;;;;5015950;28;19913;-81
2022/01/06 08:58:05;;;;;;;;;;;1.90;99.90;;;;;;5016548;28;19921;-82
2022/01/06 09:00:31;;;;;;;;;;;1.90;99.90;;;;;;5015796;28;20023;-82
2022/01/06 09:02:57;;;;;;;;;;;1.90;99.90;;;;;;5016546;28;19917;-82
2022/01/06 09:05:23;;;;;;;;;;;1.90;99.90;;;;;;5013816;28;20295;-82
2022/01/06 09:07:49;;;;;;;;;;;1.90;99.90;;;;;;5014848;28;19996;-82
2022/01/06 09:10:15;;;;;;;;;;;1.80;99.90;;;;;;4994046;28;19952;-84
2022/01/06 09:12:42;;;;;;;;;;;1.80;99.90;;;;;;4994674;28;20164;-82
2022/01/06 09:15:08;;;;;;;;;;;1.80;99.90;;;;;;5009389;28;19917;-82
2022/01/06 09:17:36;;;;;;;;;;;1.80;99.90;;;;;;4990172;28;19917;-81
2022/01/06 09:20:05;;;;;;;;;;;1.90;99.90;;;;;;5013267;28;19924;-80
2022/01/06 09:22:30;;;;;;;;;;;1.90;99.90;;;;;;5015521;28;20346;-81
2022/01/06 09:24:56;;;;;;;;;;;1.90;99.90;;;;;;4994687;28;20020;-81
2022/01/06 09:27:23;;;;;;;;;;;1.90;99.90;;;;;;5013102;28;20372;-81
2022/01/06 09:29:52;;;;;;;;;;;1.90;99.90;;;;;;5013014;28;20012;-80
2022/01/06 09:32:18;;;;;;;;;;;2.00;99.90;;;;;;5004055;28;19947;-80
2022/01/06 09:34:44;;;;;;;;;;;2.10;99.90;;;;;;5007703;28;19979;-81
2022/01/06 09:37:09;;;;;;;;;;;2.10;99.90;;;;;;5010664;28;20403;-81
2022/01/06 09:39:38;;;;;;;;;;;2.10;99.90;;;;;;5012743;28;19956;-81
2022/01/06 09:42:04;;;;;;;;;;;2.20;99.90;;;;;;4991313;28;19913;-81
2022/01/06 09:44:30;;;;;;;;;;;2.20;99.90;;;;;;5003624;28;19940;-82
2022/01/06 09:46:56;;;;;;;;;;;2.20;99.90;;;;;;4977679;28;19917;-81
2022/01/06 09:49:22;;;;;;;;;;;2.20;99.90;;;;;;4999379;28;19914;-81
2022/01/06 09:51:48;;;;;;;;;;;2.20;99.90;;;;;;5012902;28;19967;-81
2022/01/06 09:54:13;;;;;;;;;;;2.20;99.90;;;;;;5026771;28;20033;-81
2022/01/06 09:56:39;;;;;;;;;;;2.20;99.90;;;;;;4998112;28;19914;-81
2022/01/06 09:59:05;;;;;;;;;;;2.20;99.90;;;;;;5011073;28;20445;-81
2022/01/06 10:01:31;;;;;;;;;;;2.20;99.90;;;;;;5015139;28;20384;-81
2022/01/06 10:03:57;;;;;;;;;;;2.20;99.90;;;;;;5031922;28;19963;-81
2022/01/06 10:06:23;;;;;;;;;;;2.20;99.90;;;;;;5014804;28;20387;-81
2022/01/06 10:08:57;;;;;;;;;;;2.20;99.90;;;;;;5014725;28;20304;-81
2022/01/06 10:11:27;;;;;;;;;;;2.30;99.90;;;;;;4999005;28;19924;-82
2022/01/06 10:13:59;;;;;;;;;;;2.20;99.90;;;;;;4998988;28;20431;-81
2022/01/06 10:16:25;;;;;;;;;;;2.30;99.90;;;;;;5014521;28;20409;-82
2022/01/06 10:18:55;;;;;;;;;;;2.30;99.90;;;;;;4998157;28;19924;-81
2022/01/06 10:21:21;;;;;;;;;;;2.40;99.90;;;;;;5015170;28;19921;-81
2022/01/06 10:24:05;;;;;;;;;;;2.50;99.90;;;;;;5014909;28;19967;-81
2022/01/06 10:26:31;;;;;;;;;;;2.60;99.90;;;;;;4994802;28;19913;-82
2022/01/06 10:28:57;;;;;;;;;;;2.60;99.90;;;;;;4994641;28;19910;-82
2022/01/06 10:31:27;;;;;;;;;;;2.60;99.90;;;;;;4978563;28;19925;-81
2022/01/06 10:33:52;;;;;;;;;;;2.60;99.90;;;;;;4994984;28;20007;-81
2022/01/06 10:36:25;;;;;;;;;;;2.70;99.90;;;;;;4994667;28;19973;-81
2022/01/06 10:38:54;;;;;;;;;;;2.70;99.90;;;;;;5012126;28;19913;-82
2022/01/06 10:41:20;;;;;;;;;;;2.80;99.90;;;;;;4995306;28;20030;-82
2022/01/06 10:43:49;;;;;;;;;;;2.80;99.90;;;;;;4999078;28;20378;-82
2022/01/06 10:46:15;;;;;;;;;;;2.80;99.90;;;;;;4998077;28;19967;-82
2022/01/06 10:48:44;;;;;;;;;;;2.90;99.90;;;;;;5013792;28;20335;-82
2022/01/06 10:51:10;;;;;;;;;;;2.80;99.90;;;;;;5011321;28;19922;-84
2022/01/06 10:53:46;;;;;;;;;;;2.80;99.90;;;;;;5014620;28;19940;-82
2022/01/06 10:56:16;;;;;;;;;;;2.70;99.90;;;;;;5030362;28;19913;-82
2022/01/06 10:58:43;;;;;;;;;;;2.70;99.90;;;;;;4997513;28;20555;-82
2022/01/06 11:01:14;;;;;;;;;;;2.70;99.90;;;;;;5030670;28;19949;-82
2022/01/06 11:03:40;;;;;;;;;;;2.60;99.90;;;;;;5014182;28;19917;-83
2022/01/06 11:06:06;;;;;;;;;;;2.60;99.90;;;;;;4997817;28;19951;-83
2022/01/06 11:08:35;;;;;;;;;;;2.60;99.90;;;;;;4994272;28;19917;-82
2022/01/06 11:13:40;;;;;;;;;;;2.60;99.90;;;;;;5011147;28;19960;-83
2022/01/06 11:16:06;;;;;;;;;;;2.50;99.90;;;;;;4993961;28;19921;-82
2022/01/06 11:18:32;;;;;;;;;;;2.50;99.90;;;;;;4977797;28;19933;-83
2022/01/06 11:21:06;;;;;;;;;;;2.50;99.90;;;;;;4994487;28;19913;-83
2022/01/06 11:23:32;;;;;;;;;;;2.50;99.90;;;;;;4994428;28;19920;-83
2022/01/06 11:26:11;;;;;;;;;;;2.50;99.90;;;;;;5009424;28;19913;-83
2022/01/06 11:28:37;;;;;;;;;;;2.50;99.90;;;;;;4997182;28;20284;-83
2022/01/06 11:31:19;;;;;;;;;;;2.50;99.90;;;;;;5014093;28;19914;-83
2022/01/06 11:33:47;;;;;;;;;;;2.50;99.90;;;;;;4997359;28;19917;-82
2022/01/06 11:36:20;;;;;;;;;;;2.40;99.90;;;;;;4997010;28;20403;-83
2022/01/06 11:38:48;;;;;;;;;;;2.40;99.90;;;;;;4996823;28;20265;-82
2022/01/06 11:41:14;;;;;;;;;;;2.30;99.90;;;;;;4997429;28;20008;-83
2022/01/06 11:43:41;;;;;;;;;;;2.20;99.90;;;;;;5012840;28;19971;-83
2022/01/06 11:46:07;;;;;;;;;;;2.10;99.90;;;;;;5009916;28;19914;-83
2022/01/06 11:48:43;;;;;;;;;;;2.10;99.90;;;;;;5010215;28;19956;-86
2022/01/06 11:51:20;;;;;;;;;;;2.10;99.90;;;;;;5010567;28;19917;-86
2022/01/06 11:53:46;;;;;;;;;;;1.90;99.90;;;;;;4997604;28;19913;-85
2022/01/06 11:56:14;;;;;;;;;;;1.90;99.90;;;;;;4989802;28;19940;-85
2022/01/06 11:58:40;;;;;;;;;;;1.90;99.90;;;;;;5008928;28;19909;-85
2022/01/06 12:01:11;;;;;;;;;;;1.90;99.90;;;;;;4994035;28;20383;-84
2022/01/06 12:03:38;;;;;;;;;;;1.90;99.90;;;;;;4994275;28;19913;-86
2022/01/06 12:06:05;;;;;;;;;;;1.80;99.90;;;;;;4994512;28;20011;-86
2022/01/06 12:08:35;;;;;;;;;;;1.80;99.90;;;;;;4991184;28;20342;-85
2022/01/06 12:11:01;;;;;;;;;;;1.80;99.90;;;;;;5006912;28;19914;-85
2022/01/06 12:13:27;;;;;;;;;;;1.70;99.90;;;;;;5008521;28;19917;-85
2022/01/06 12:15:54;;;;;;;;;;;1.70;99.90;;;;;;5006416;28;19966;-85
2022/01/06 12:18:21;;;;;;;;;;;1.60;99.90;;;;;;5009765;28;20003;-84
2022/01/06 12:20:48;;;;;;;;;;;1.60;99.90;;;;;;4995351;28;20352;-85
2022/01/06 12:23:14;;;;;;;;;;;1.60;99.90;;;;;;4990665;28;19914;-85
2022/01/06 12:25:40;;;;;;;;;;;1.60;99.90;;;;;;5002164;28;19921;-84
2022/01/06 12:28:08;;;;;;;;;;;1.60;99.90;;;;;;5011337;28;19913;-83
2022/01/06 12:30:35;;;;;;;;;;;1.50;99.90;;;;;;5008589;28;19920;-83
2022/01/06 12:33:03;;;;;;;;;;;1.50;99.90;;;;;;4993591;28;19920;-83
2022/01/06 12:35:47;;;;;;;;;;;1.40;99.90;;;;;;4995526;28;19917;-84
2022/01/06 12:38:14;;;;;;;;;;;1.40;99.90;;;;;;5006830;28;20534;-83
2022/01/06 12:40:41;;;;;;;;;;;1.40;99.90;;;;;;5010103;28;19924;-83
2022/01/06 12:43:32;;;;;;;;;;;1.40;99.90;;;;;;5010638;28;20402;-83
2022/01/06 12:46:04;;;;;;;;;;;1.40;99.90;;;;;;5003280;28;19917;-84
2022/01/06 12:48:31;;;;;;;;;;;1.40;99.90;;;;;;5003730;28;19957;-85
2022/01/06 12:50:57;;;;;;;;;;;1.40;99.90;;;;;;5011289;28;19928;-85
2022/01/06 12:53:28;;;;;;;;;;;1.40;99.90;;;;;;4994792;28;20008;-85
2022/01/06 12:55:53;;;;;;;;;;;1.40;99.90;;;;;;4992341;28;20581;-85
2022/01/06 12:58:23;;;;;;;;;;;1.50;99.90;;;;;;4994257;28;19989;-84
2022/01/06 13:00:52;;;;;;;;;;;1.40;99.90;;;;;;4994942;28;19999;-85
2022/01/06 13:03:25;;;;;;;;;;;1.40;99.90;;;;;;5014720;28;19920;-85
2022/01/06 13:05:51;;;;;;;;;;;1.40;99.90;;;;;;4996610;28;20287;-85
2022/01/06 13:08:49;;;;;;;;;;;1.40;99.90;;;;;;5013222;28;19979;-85
2022/01/06 13:11:27;;;;;;;;;;;1.50;99.90;;;;;;5004223;28;20000;-84
2022/01/06 13:14:17;;;;;;;;;;;1.40;99.90;;;;;;5000092;28;19917;-84
2022/01/06 13:16:45;;;;;;;;;;;1.50;99.90;;;;;;5013769;28;19913;-84
2022/01/06 13:19:31;;;;;;;;;;;1.50;99.90;;;;;;5007218;28;19913;-83
2022/01/06 13:22:25;;;;;;;;;;;1.50;99.90;;;;;;4997322;28;20015;-83
2022/01/06 13:25:23;;;;;;;;;;;1.40;99.90;;;;;;5013105;28;20484;-84
2022/01/06 13:28:28;;;;;;;;;;;1.50;99.90;;;;;;5012526;28;19923;-84
2022/01/06 13:30:54;;;;;;;;;;;1.50;99.90;;;;;;4995316;28;19928;-83
2022/01/06 13:33:39;;;;;;;;;;;1.50;99.90;;;;;;5004836;28;19913;-85
2022/01/06 13:36:59;;;;;;;;;;;1.50;99.90;;;;;;5022699;28;19924;-89
2022/01/06 13:39:49;;;;;;;;;;;1.40;99.90;;;;;;5017640;28;19913;-84
2022/01/06 13:42:24;;;;;;;;;;;1.40;99.90;;;;;;5015530;28;19998;-84
2022/01/06 13:44:52;;;;;;;;;;;1.30;99.90;;;;;;4998725;28;19921;-84
2022/01/06 13:47:36;;;;;;;;;;;1.30;99.90;;;;;;5005816;28;19917;-84
2022/01/06 13:52:51;;;;;;;;;;;1.20;99.90;;;;;;4998265;28;20368;-83
2022/01/06 13:55:17;;;;;;;;;;;1.20;99.90;;;;;;4998095;28;19921;-84
2022/01/06 13:57:42;;;;;;;;;;;1.20;99.90;;;;;;5015042;28;20300;-83
2022/01/06 14:00:08;;;;;;;;;;;1.20;99.90;;;;;;4996997;28;19948;-83
2022/01/06 14:02:39;;;;;;;;;;;1.20;99.90;;;;;;5013004;28;19913;-83
2022/01/06 14:05:08;;;;;;;;;;;1.20;99.90;;;;;;5012423;28;19960;-83
2022/01/06 14:07:34;;;;;;;;;;;1.20;99.90;;;;;;4991899;28;19928;-84
2022/01/06 14:10:05;;;;;;;;;;;1.20;99.90;;;;;;5009187;28;20358;-83
2022/01/06 14:12:30;;;;;;;;;;;1.10;99.90;;;;;;4995553;28;19924;-83
2022/01/06 14:14:57;;;;;;;;;;;1.20;99.90;;;;;;4995146;28;20292;-83
2022/01/06 14:17:22;;;;;;;;;;;1.10;99.90;;;;;;4991821;28;19924;-83
2022/01/06 14:19:48;;;;;;;;;;;1.10;99.90;;;;;;5021687;28;19928;-83
2022/01/06 14:22:14;;;;;;;;;;;1.10;99.90;;;;;;4995772;28;19917;-84
2022/01/06 14:24:39;;;;;;;;;;;1.00;99.90;;;;;;4991149;28;19917;-84
2022/01/06 14:27:05;;;;;;;;;;;1.10;99.90;;;;;;5011086;28;19967;-85
2022/01/06 14:29:31;;;;;;;;;;;1.00;99.90;;;;;;5011349;28;19985;-84
2022/01/06 14:31:57;;;;;;;;;;;1.00;99.90;;;;;;4995290;28;19920;-84
2022/01/06 14:34:23;;;;;;;;;;;1.00;99.90;;;;;;4991709;28;20000;-84
2022/01/06 14:36:48;;;;;;;;;;;1.00;99.90;;;;;;5006681;28;19936;-83
2022/01/06 14:39:14;;;;;;;;;;;1.00;99.90;;;;;;4992131;28;20376;-84
2022/01/06 14:41:40;;;;;;;;;;;1.10;99.90;;;;;;4991491;28;19918;-85
2022/01/06 14:44:05;;;;;;;;;;;1.10;99.90;;;;;;4992627;28;19913;-85